createdAt,value
2022-11-21T00:00:57.011Z,355.25
2022-11-21T00:03:05.054Z,362.94
2022-11-21T00:05:13.788Z,361.69
2022-11-21T00:07:19.555Z,367.98
2022-11-21T00:09:30.055Z,385.75
2022-11-21T00:11:35.822Z,373.37
2022-11-21T00:13:42.628Z,369.77
2022-11-21T00:15:50.367Z,356.11
2022-11-21T00:18:14.416Z,387.77
2022-11-21T00:20:28.906Z,391.40
2022-11-21T00:22:41.314Z,413.95
2022-11-21T00:24:50.494Z,411.46
2022-11-21T00:26:58.906Z,409.10
2022-11-21T00:29:24.971Z,402.83
2022-11-21T00:31:31.538Z,392.69
2022-11-21T00:33:41.640Z,378.14
2022-11-21T00:35:51.024Z,377.37
2022-11-21T00:37:57.043Z,376.77
2022-11-21T00:40:20.031Z,368.30
2022-11-21T00:42:26.696Z,358.76
2022-11-21T00:44:38.805Z,356.83
2022-11-21T00:46:50.796Z,358.26
2022-11-21T00:48:57.722Z,354.15
2022-11-21T00:51:12.597Z,366.78
2022-11-21T00:53:18.653Z,372.17
2022-11-21T00:55:37.451Z,383.04
2022-11-21T00:57:43.406Z,381.46
2022-11-21T00:59:49.201Z,388.74
2022-11-21T01:01:56.221Z,403.16
2022-11-21T01:04:02.693Z,390.83
2022-11-21T01:06:13.776Z,393.85
2022-11-21T01:08:20.483Z,384.06
2022-11-21T01:10:26.195Z,386.11
2022-11-21T01:12:32.102Z,374.39
2022-11-21T01:14:38.860Z,381.72
2022-11-21T01:16:45.371Z,391.64
2022-11-21T01:18:52.471Z,395.70
2022-11-21T01:21:03.236Z,411.62
2022-11-21T01:23:11.799Z,377.83
2022-11-21T01:25:17.853Z,376.92
2022-11-21T01:27:26.108Z,447.49
2022-11-21T01:29:32.168Z,458.97
2022-11-21T01:31:38.637Z,479.34
2022-11-21T01:33:46.622Z,512.42
2022-11-21T01:35:52.374Z,518.34
2022-11-21T01:37:58.195Z,529.01
2022-11-21T01:40:08.643Z,526.07
2022-11-21T01:42:16.785Z,508.23
2022-11-21T01:44:27.297Z,503.23
2022-11-21T01:46:40.977Z,417.47
2022-11-21T01:49:15.974Z,406.97
2022-11-21T01:51:33.348Z,407.69
2022-11-21T01:53:45.463Z,412.26
2022-11-21T01:55:56.671Z,409.94
2022-11-21T01:58:04.763Z,448.77
2022-11-21T02:00:22.183Z,541.54
2022-11-21T02:02:35.970Z,461.58
2022-11-21T02:04:47.512Z,510.04
2022-11-21T02:06:55.405Z,497.35
2022-11-21T02:09:04.545Z,447.57
2022-11-21T02:11:24.883Z,349.88
2022-11-21T02:13:31.533Z,358.04
2022-11-21T02:15:41.602Z,344.76
2022-11-21T02:17:47.481Z,336.60
2022-11-21T02:20:01.075Z,346.93
2022-11-21T02:22:21.557Z,476.79
2022-11-21T02:24:41.457Z,374.70
2022-11-21T02:26:52.588Z,362.93
2022-11-21T02:39:53.048Z,422.24
2022-11-21T02:44:26.069Z,420.46
2022-11-21T02:46:34.504Z,421.61
2022-11-21T02:48:42.081Z,419.24
2022-11-21T02:50:50.653Z,419.02
2022-11-21T02:53:00.093Z,421.97
2022-11-21T02:55:06.126Z,404.78
2022-11-21T02:57:12.049Z,400.84
2022-11-21T02:59:21.389Z,383.22
2022-11-21T03:01:27.329Z,376.26
2022-11-21T03:03:36.568Z,359.10
2022-11-21T03:05:44.316Z,341.01
2022-11-21T03:07:50.632Z,326.88
2022-11-21T03:09:57.353Z,320.12
2022-11-21T03:12:09.946Z,317.24
2022-11-21T03:14:15.907Z,320.85
2022-11-21T03:16:24.537Z,337.45
2022-11-21T03:18:31.309Z,380.08
2022-11-21T03:23:11.423Z,360.13
2022-11-21T03:25:20.929Z,375.00
2022-11-21T03:27:38.985Z,408.33
2022-11-21T03:29:44.795Z,451.03
2022-11-21T03:32:04.171Z,460.53
2022-11-21T03:34:20.234Z,444.62
2022-11-21T03:36:26.162Z,465.37
2022-11-21T03:38:40.895Z,468.69
2022-11-21T03:40:46.600Z,477.25
2022-11-21T03:42:52.291Z,472.73
2022-11-21T03:44:59.044Z,458.17
2022-11-21T03:47:04.810Z,481.75
2022-11-21T03:49:11.807Z,611.97
2022-11-21T03:51:23.698Z,709.28
2022-11-21T03:53:29.442Z,577.92
2022-11-21T03:55:37.860Z,649.48
2022-11-21T03:57:44.639Z,517.66
2022-11-21T03:59:50.489Z,480.18
2022-11-21T04:06:31.579Z,498.97
2022-11-21T04:08:38.367Z,540.94
2022-11-21T04:10:50.298Z,454.52
2022-11-21T04:12:55.998Z,419.23
2022-11-21T04:15:02.862Z,435.13
2022-11-21T04:17:08.784Z,415.42
2022-11-21T04:19:14.840Z,421.32
2022-11-21T04:21:21.612Z,440.18
2022-11-21T04:23:31.544Z,474.03
2022-11-21T04:25:37.758Z,527.04
2022-11-21T04:27:44.378Z,570.03
2022-11-21T04:29:50.239Z,614.80
2022-11-21T04:31:56.134Z,588.14
2022-11-21T04:34:02.867Z,566.30
2022-11-21T04:36:17.015Z,574.76
2022-11-21T07:26:49.542Z,1183.63
2022-11-21T07:28:56.719Z,1168.10
2022-11-21T07:31:13.164Z,1149.91
2022-11-21T07:33:23.786Z,1087.45
2022-11-21T07:35:31.965Z,1066.09
2022-11-21T07:37:42.470Z,1096.25
2022-11-21T07:39:48.227Z,944.66
2022-11-21T07:41:57.336Z,1108.72
2022-11-21T07:44:10.054Z,1079.02
2022-11-21T07:46:36.327Z,990.19
2022-11-21T07:48:42.838Z,986.24
2022-11-21T07:50:48.464Z,987.51
2022-11-21T07:52:54.110Z,1065.73
2022-11-21T07:55:02.537Z,1068.92
2022-11-21T07:57:10.963Z,912.32
2022-11-21T07:59:19.416Z,806.33
2022-11-21T08:01:34.145Z,803.86
2022-11-21T08:03:39.933Z,830.32
2022-11-21T08:05:47.727Z,995.32
2022-11-21T08:07:55.483Z,1112.04
2022-11-21T08:10:01.206Z,1067.26
2022-11-21T08:12:26.485Z,1028.44
2022-11-21T08:14:35.201Z,788.49
2022-11-21T08:16:56.487Z,780.35
2022-11-21T08:19:02.840Z,800.57
2022-11-21T16:19:04.260Z,401.78
2022-11-21T16:21:18.189Z,401.15
2022-11-21T16:23:23.909Z,399.26
2022-11-21T16:25:29.544Z,404.94
2022-11-21T16:27:36.338Z,396.40
2022-11-21T16:29:42.032Z,337.48
2022-11-21T16:31:55.313Z,349.44
2022-11-21T16:34:16.158Z,368.02
2022-11-21T16:36:26.747Z,363.13
2022-11-21T16:38:35.488Z,355.31
2022-11-21T16:40:42.435Z,344.69
2022-11-21T16:42:48.047Z,393.57
2022-11-21T16:44:56.153Z,447.26
2022-11-21T16:47:09.294Z,457.18
2022-11-21T16:49:23.766Z,567.06
2022-11-21T16:51:31.686Z,503.50
2022-11-21T16:53:38.171Z,443.73
2022-11-21T16:55:43.952Z,369.99
2022-11-21T16:57:49.830Z,360.41
2022-11-21T16:59:59.087Z,351.66
2022-11-21T17:02:07.831Z,372.55
2022-11-21T17:04:17.164Z,356.32
2022-11-21T17:06:31.262Z,337.79
2022-11-21T17:08:40.803Z,338.18
2022-11-21T17:10:46.585Z,380.94
2022-11-21T17:12:53.040Z,371.60
2022-11-21T17:14:58.678Z,386.44
2022-11-21T17:17:06.385Z,381.02
2022-11-21T17:19:16.456Z,365.52
2022-11-21T17:21:30.376Z,358.20
2022-11-21T17:23:41.925Z,344.47
2022-11-21T17:25:48.465Z,337.50
2022-11-21T17:27:54.249Z,359.57
2022-11-21T17:30:00.037Z,387.91
2022-11-21T17:32:09.384Z,376.59
2022-11-21T17:34:15.661Z,467.77
2022-11-21T17:36:24.720Z,457.04
2022-11-21T17:38:31.401Z,635.09
2022-11-21T17:40:39.777Z,527.03
2022-11-21T17:42:45.482Z,492.74
2022-11-21T17:44:52.075Z,437.68
2022-11-21T17:46:59.465Z,436.02
2022-11-21T17:49:05.474Z,433.40
2022-11-21T17:51:16.753Z,515.83
2022-11-21T17:53:22.576Z,553.31
2022-11-21T17:55:28.238Z,535.79
2022-11-21T17:57:37.330Z,514.18
2022-11-21T17:59:48.910Z,458.70
2022-11-21T18:01:54.725Z,476.83
2022-11-21T18:04:05.751Z,494.09
2022-11-21T18:06:17.748Z,470.64
2022-11-21T18:08:23.528Z,488.65
2022-11-21T18:10:43.375Z,538.57
2022-11-21T18:12:52.121Z,688.02
2022-11-21T18:14:57.800Z,545.99
2022-11-21T18:17:04.423Z,521.40
2022-11-21T18:19:10.666Z,581.73
2022-11-21T18:21:20.124Z,603.86
2022-11-21T18:34:57.566Z,539.94
2022-11-21T18:37:04.439Z,530.13
2022-11-21T18:39:14.806Z,593.76
2022-11-21T18:41:24.689Z,517.11
2022-11-21T18:43:31.423Z,482.31
2022-11-21T18:45:37.313Z,469.67
2022-11-21T18:47:43.852Z,451.01
2022-11-21T18:49:50.634Z,516.34
2022-11-21T18:51:59.810Z,568.09
2022-11-21T18:54:10.623Z,592.31
2022-11-21T18:56:19.176Z,637.71
2022-11-21T18:58:27.300Z,590.77
2022-11-21T19:00:33.258Z,583.40
2022-11-21T19:02:39.989Z,618.17
2022-11-21T19:04:45.941Z,648.62
2022-11-21T19:06:51.906Z,605.18
2022-11-21T19:09:08.520Z,568.38
2022-11-21T19:11:17.842Z,556.83
2022-11-21T19:13:24.048Z,545.19
2022-11-21T19:17:53.953Z,571.87
2022-11-21T19:22:32.125Z,599.52
2022-11-21T19:24:40.688Z,593.26
2022-11-21T19:26:47.169Z,588.68
2022-11-21T19:29:19.376Z,591.52
2022-11-21T19:31:25.247Z,536.99
2022-11-21T19:33:33.517Z,493.87
2022-11-21T19:35:40.989Z,510.60
2022-11-21T19:37:47.275Z,479.06
2022-11-21T19:39:55.781Z,483.42
2022-11-21T19:42:02.635Z,478.92
2022-11-21T19:44:08.890Z,463.53
2022-11-21T19:46:31.314Z,447.24
2022-11-21T19:48:38.275Z,516.36
2022-11-21T19:50:49.956Z,529.78
2022-11-21T19:52:58.304Z,612.47
2022-11-21T19:55:09.710Z,706.35
2022-11-21T19:57:16.068Z,643.27
2022-11-21T19:59:23.110Z,646.20
2022-11-21T20:01:34.074Z,630.59
2022-11-21T20:03:43.935Z,651.25
2022-11-21T20:05:52.342Z,711.35
2022-11-21T20:08:04.930Z,671.18
2022-11-21T20:10:17.927Z,583.45
2022-11-21T20:12:24.460Z,554.84
2022-11-21T20:14:31.678Z,579.03
2022-11-21T20:16:41.543Z,532.38
2022-11-21T20:18:47.881Z,543.60
2022-11-21T20:20:55.303Z,592.00
2022-11-21T20:23:01.739Z,600.83
2022-11-21T20:25:09.368Z,569.71
2022-11-21T20:27:19.052Z,679.87
2022-11-21T20:29:25.348Z,615.97
2022-11-21T20:31:35.291Z,547.42
2022-11-21T20:33:45.685Z,596.09
2022-11-21T20:35:51.783Z,608.49
2022-11-21T20:37:57.998Z,550.03
2022-11-21T20:40:05.275Z,547.53
2022-11-21T20:42:11.487Z,570.55
2022-11-21T20:44:57.059Z,570.82
2022-11-21T20:46:51.658Z,565.12
2022-11-21T20:49:01.275Z,574.76
2022-11-21T20:53:53.156Z,536.59
2022-11-21T20:56:05.573Z,547.11
2022-11-21T20:58:12.559Z,608.34
2022-11-21T21:00:23.077Z,652.63
2022-11-21T21:02:29.105Z,633.75
2022-11-21T21:04:35.274Z,614.63
2022-11-21T21:06:43.737Z,692.40
2022-11-21T21:08:51.429Z,687.60
2022-11-21T21:11:16.556Z,615.45
2022-11-21T21:13:33.753Z,565.95
2022-11-21T21:15:43.041Z,562.24
2022-11-21T21:17:51.474Z,577.48
2022-11-21T21:19:58.758Z,585.81
2022-11-21T21:22:05.217Z,663.99
2022-11-21T21:24:15.467Z,903.18
2022-11-21T21:26:26.421Z,729.42
2022-11-21T21:28:33.915Z,717.96
2022-11-21T21:30:45.329Z,789.26
2022-11-21T21:32:52.295Z,843.48
2022-11-21T21:34:59.366Z,905.74
2022-11-21T21:37:06.779Z,832.37
2022-11-21T21:39:15.188Z,853.67
2022-11-21T21:41:21.838Z,828.41
2022-11-21T21:43:27.929Z,846.35
2022-11-21T21:45:35.648Z,769.37
2022-11-21T21:47:44.368Z,802.97
2022-11-21T21:49:50.996Z,843.89
2022-11-21T21:51:58.010Z,770.80
2022-11-21T21:54:04.058Z,778.72
2022-11-21T21:56:11.576Z,897.11
2022-11-21T21:58:18.431Z,1471.73
2022-11-21T22:00:24.764Z,1159.98
2022-11-21T22:02:30.910Z,1173.55
2022-11-21T22:04:40.559Z,1234.52
2022-11-21T22:06:46.833Z,1157.28
2022-11-21T22:08:54.606Z,1039.55
2022-11-21T22:11:07.669Z,916.91
2022-11-21T22:13:14.414Z,969.73
2022-11-21T22:15:20.595Z,1004.07
2022-11-21T22:17:28.172Z,987.46
2022-11-21T22:19:34.720Z,907.72
2022-11-21T22:21:43.869Z,1022.27
2022-11-21T22:24:17.778Z,1009.63
2022-11-21T22:26:19.476Z,1018.26
2022-11-21T22:28:25.699Z,1060.51
2022-11-21T22:30:32.691Z,1046.11
2022-11-21T22:32:39.256Z,1006.93
2022-11-21T22:34:45.424Z,965.08
2022-11-21T22:36:55.067Z,945.24
2022-11-21T22:39:01.184Z,928.92
2022-11-21T22:41:10.798Z,897.92
2022-11-21T22:43:17.768Z,946.32
2022-11-21T22:45:24.018Z,947.08
2022-11-21T22:47:30.141Z,943.58
2022-11-21T22:49:37.020Z,927.34
2022-11-21T22:51:43.329Z,821.55
2022-11-21T22:53:53.916Z,746.24
2022-11-21T22:56:03.879Z,792.43
2022-11-21T22:58:10.384Z,804.70
2022-11-21T23:00:19.602Z,809.85
2022-11-21T23:02:26.784Z,859.24
2022-11-21T23:04:35.142Z,749.26
2022-11-21T23:06:41.911Z,722.48
2022-11-21T23:08:53.126Z,789.05
2022-11-21T23:11:06.577Z,776.40
2022-11-21T23:13:12.752Z,868.37
2022-11-21T23:15:20.279Z,924.74
2022-11-21T23:17:26.645Z,907.84
2022-11-21T23:19:32.818Z,938.73
2022-11-21T23:21:39.861Z,842.07
2022-11-21T23:23:46.945Z,796.63
2022-11-21T23:25:56.970Z,750.89
2022-11-21T23:28:03.981Z,694.59
2022-11-21T23:30:12.934Z,801.91
